createdAt,value
2022-12-19T00:01:37.749Z,17.23
2022-12-19T00:03:40.023Z,18.83
2022-12-19T00:05:42.594Z,17.73
2022-12-19T00:07:44.664Z,17.33
2022-12-19T00:09:46.664Z,15.80
2022-12-19T00:11:48.965Z,14.73
2022-12-19T00:13:51.418Z,16.17
2022-12-19T00:15:53.424Z,15.63
2022-12-19T00:17:55.559Z,17.37
2022-12-19T00:19:57.514Z,13.90
2022-12-19T00:21:59.515Z,15.07
2022-12-19T00:24:02.933Z,13.90
2022-12-19T00:26:20.158Z,14.97
2022-12-19T00:28:23.036Z,16.63
2022-12-19T00:30:25.266Z,16.23
2022-12-19T00:32:28.030Z,15.07
2022-12-19T00:34:30.030Z,14.73
2022-12-19T00:36:34.046Z,16.73
2022-12-19T00:38:36.057Z,15.70
2022-12-19T00:40:38.049Z,17.57
2022-12-19T00:42:42.425Z,15.00
2022-12-19T00:44:44.430Z,15.10
2022-12-19T00:46:50.252Z,16.47
2022-12-19T00:48:55.231Z,16.20
2022-12-19T00:51:06.771Z,14.40
2022-12-19T00:53:09.386Z,17.03
2022-12-19T00:55:12.714Z,16.00
2022-12-19T00:57:21.080Z,14.57
2022-12-19T00:59:26.332Z,15.63
2022-12-19T01:01:34.591Z,15.70
2022-12-19T01:03:36.701Z,15.43
2022-12-19T01:05:38.715Z,14.13
2022-12-19T01:07:44.069Z,14.33
2022-12-19T01:09:46.125Z,15.13
2022-12-19T01:12:08.523Z,15.10
2022-12-19T01:14:19.038Z,15.50
2022-12-19T01:16:23.380Z,15.30
2022-12-19T01:18:27.318Z,15.70
2022-12-19T01:20:30.098Z,15.10
2022-12-19T01:22:32.890Z,14.90
2022-12-19T01:24:34.891Z,14.53
2022-12-19T01:26:37.542Z,14.23
2022-12-19T01:28:39.873Z,14.30
2022-12-19T01:30:42.222Z,15.47
2022-12-19T01:32:45.316Z,13.47
2022-12-19T01:34:47.445Z,14.00
2022-12-19T01:36:49.564Z,14.77
2022-12-19T01:38:51.514Z,14.80
2022-12-19T01:40:56.297Z,14.30
2022-12-19T01:42:58.347Z,14.23
2022-12-19T01:45:12.120Z,13.80
2022-12-19T01:47:15.846Z,14.80
2022-12-19T01:49:35.501Z,12.97
2022-12-19T01:51:41.091Z,13.10
2022-12-19T01:53:49.291Z,14.00
2022-12-19T01:55:52.313Z,13.00
2022-12-19T01:57:55.450Z,12.80
2022-12-19T01:59:59.284Z,13.80
2022-12-19T02:02:34.147Z,12.97
2022-12-19T02:04:36.804Z,13.53
2022-12-19T02:06:39.624Z,14.20
2022-12-19T02:08:42.326Z,13.57
2022-12-19T02:10:44.351Z,12.67
2022-12-19T02:12:46.816Z,13.60
2022-12-19T02:14:49.146Z,13.07
2022-12-19T02:16:58.921Z,11.80
2022-12-19T02:19:19.317Z,13.53
2022-12-19T02:21:34.124Z,12.97
2022-12-19T02:24:13.618Z,12.00
2022-12-19T02:26:22.766Z,12.83
2022-12-19T02:28:25.220Z,12.57
2022-12-19T02:31:16.378Z,12.00
2022-12-19T02:33:37.711Z,12.30
2022-12-19T02:35:45.618Z,10.63
2022-12-19T02:37:56.203Z,11.67
2022-12-19T02:40:15.460Z,13.13
2022-12-19T02:42:25.289Z,12.30
2022-12-19T02:44:42.463Z,12.70
2022-12-19T02:46:46.151Z,12.10
2022-12-19T02:48:48.709Z,12.73
2022-12-19T02:50:51.473Z,13.37
2022-12-19T02:52:54.373Z,11.73
2022-12-19T02:54:59.419Z,12.37
2022-12-19T02:57:11.807Z,11.97
2022-12-19T02:59:18.216Z,13.83
2022-12-19T03:01:26.006Z,13.40
2022-12-19T03:03:39.179Z,11.87
2022-12-19T03:06:08.945Z,13.00
2022-12-19T03:08:29.094Z,12.10
2022-12-19T03:10:45.685Z,12.27
2022-12-19T03:12:50.033Z,12.60
2022-12-19T03:14:52.879Z,10.90
2022-12-19T03:16:55.192Z,12.60
2022-12-19T03:18:57.897Z,12.07
2022-12-19T03:21:05.181Z,12.67
2022-12-19T03:23:07.235Z,12.43
2022-12-19T03:25:09.359Z,12.60
2022-12-19T03:27:14.523Z,11.80
2022-12-19T03:29:39.207Z,11.30
2022-12-19T03:31:42.592Z,12.20
2022-12-19T03:33:45.518Z,12.30
2022-12-19T03:35:49.160Z,11.87
2022-12-19T03:37:52.846Z,11.80
2022-12-19T03:40:00.562Z,11.67
2022-12-19T03:42:22.101Z,9.87
2022-12-19T03:44:26.371Z,12.60
2022-12-19T03:46:28.857Z,12.13
2022-12-19T03:48:34.480Z,12.07
2022-12-19T03:50:53.500Z,11.13
2022-12-19T03:53:14.716Z,10.20
2022-12-19T03:55:26.839Z,11.37
2022-12-19T03:57:35.939Z,10.83
2022-12-19T03:59:48.999Z,10.23
2022-12-19T04:01:52.088Z,10.83
2022-12-19T04:03:55.872Z,11.43
2022-12-19T04:05:59.682Z,10.50
2022-12-19T04:08:06.357Z,11.50
2022-12-19T04:10:12.050Z,10.17
2022-12-19T04:12:18.119Z,11.30
2022-12-19T04:14:28.162Z,11.03
2022-12-19T04:16:37.293Z,10.23
2022-12-19T04:18:40.934Z,9.90
2022-12-19T04:20:45.977Z,11.07
2022-12-19T04:23:01.313Z,11.40
2022-12-19T04:25:05.765Z,10.67
2022-12-19T04:27:09.628Z,11.17
2022-12-19T04:29:12.278Z,9.60
2022-12-19T04:31:15.766Z,11.57
2022-12-19T04:33:17.936Z,11.37
2022-12-19T04:35:19.971Z,9.60
2022-12-19T04:37:21.955Z,10.93
2022-12-19T04:39:23.959Z,10.03
2022-12-19T04:41:26.845Z,10.30
2022-12-19T04:43:28.833Z,11.93
2022-12-19T04:45:30.846Z,10.97
2022-12-19T04:47:33.104Z,10.10
2022-12-19T04:49:35.086Z,10.67
2022-12-19T04:51:37.117Z,10.57
2022-12-19T04:53:39.149Z,10.40
2022-12-19T04:55:41.397Z,11.93
2022-12-19T04:57:43.365Z,11.00
2022-12-19T04:59:45.347Z,11.93
2022-12-19T05:01:47.426Z,11.10
2022-12-19T05:03:54.312Z,11.87
2022-12-19T05:06:11.038Z,10.13
2022-12-19T05:08:12.987Z,10.60
2022-12-19T05:10:15.632Z,11.63
2022-12-19T05:12:17.611Z,12.00
2022-12-19T05:14:19.644Z,11.87
2022-12-19T05:16:21.770Z,10.77
2022-12-19T05:18:24.204Z,11.33
2022-12-19T05:20:26.232Z,10.87
2022-12-19T05:22:28.359Z,11.97
2022-12-19T05:24:30.378Z,11.13
2022-12-19T05:26:32.628Z,11.40
2022-12-19T05:28:34.736Z,10.60
2022-12-19T05:30:36.759Z,11.33
2022-12-19T05:32:39.089Z,12.20
2022-12-19T05:34:41.090Z,11.60
2022-12-19T05:36:43.067Z,10.30
2022-12-19T05:38:45.124Z,11.90
2022-12-19T05:40:47.181Z,11.40
2022-12-19T05:42:49.208Z,11.20
2022-12-19T05:44:51.188Z,11.70
2022-12-19T05:46:53.185Z,10.80
2022-12-19T05:48:55.718Z,12.00
2022-12-19T05:50:58.501Z,9.90
2022-12-19T05:53:00.504Z,11.10
2022-12-19T05:55:02.529Z,11.43
2022-12-19T05:57:04.726Z,11.20
2022-12-19T05:59:06.835Z,9.43
2022-12-19T06:01:18.975Z,11.23
2022-12-19T06:03:21.094Z,12.47
2022-12-19T06:05:23.302Z,10.67
2022-12-19T06:07:25.452Z,10.30
2022-12-19T06:09:27.478Z,11.50
2022-12-19T06:11:29.610Z,10.70
2022-12-19T06:13:31.816Z,12.30
2022-12-19T06:15:33.848Z,10.77
2022-12-19T06:17:35.817Z,10.93
2022-12-19T06:19:37.902Z,10.63
2022-12-19T06:21:47.595Z,9.60
2022-12-19T06:23:50.634Z,11.43
2022-12-19T06:25:52.760Z,11.50
2022-12-19T06:27:54.828Z,10.87
2022-12-19T06:29:56.795Z,11.87
2022-12-19T06:31:58.897Z,11.57
2022-12-19T06:34:00.929Z,10.90
2022-12-19T06:36:06.112Z,10.67
2022-12-19T06:38:08.323Z,12.23
2022-12-19T06:40:30.635Z,9.57
2022-12-19T06:42:32.636Z,11.10
2022-12-19T06:44:34.798Z,12.40
2022-12-19T06:46:37.311Z,11.47
2022-12-19T06:48:39.350Z,10.27
2022-12-19T06:50:41.336Z,10.30
2022-12-19T06:52:43.324Z,11.57
2022-12-19T06:54:45.658Z,12.13
2022-12-19T06:56:47.626Z,11.93
2022-12-19T06:58:49.903Z,11.57
2022-12-19T07:00:53.132Z,12.47
2022-12-19T07:02:55.867Z,10.83
2022-12-19T07:05:01.574Z,10.30
2022-12-19T07:07:04.589Z,12.37
2022-12-19T07:09:06.694Z,11.83
2022-12-19T07:11:08.671Z,11.97
2022-12-19T07:13:10.662Z,9.77
2022-12-19T07:15:12.714Z,12.00
2022-12-19T07:17:14.778Z,13.00
2022-12-19T07:19:16.884Z,11.27
2022-12-19T07:21:19.037Z,12.80
2022-12-19T07:23:22.000Z,13.00
2022-12-19T07:25:24.060Z,12.43
2022-12-19T07:27:35.192Z,11.70
2022-12-19T07:29:37.571Z,11.13
2022-12-19T07:31:39.582Z,12.13
2022-12-19T07:33:41.638Z,10.57
2022-12-19T07:35:43.660Z,11.80
2022-12-19T07:37:45.616Z,10.73
2022-12-19T07:39:50.357Z,10.53
2022-12-19T07:41:52.315Z,11.93
2022-12-19T07:44:06.265Z,12.73
2022-12-19T07:46:08.302Z,10.63
2022-12-19T07:48:10.393Z,11.07
2022-12-19T07:50:12.307Z,11.33
2022-12-19T07:52:14.311Z,11.03
2022-12-19T07:54:16.469Z,11.13
2022-12-19T07:56:18.398Z,12.13
2022-12-19T07:58:21.009Z,11.77
2022-12-19T08:00:23.425Z,11.90
2022-12-19T08:02:25.571Z,11.40
2022-12-19T08:04:27.871Z,11.97
2022-12-19T08:06:30.014Z,10.73
2022-12-19T08:08:32.343Z,12.20
2022-12-19T08:10:34.352Z,11.57
2022-12-19T08:12:36.371Z,11.20
2022-12-19T08:14:38.382Z,11.80
2022-12-19T08:17:10.918Z,11.20
2022-12-19T08:19:03.193Z,12.30
2022-12-19T08:21:05.459Z,13.20
2022-12-19T08:23:07.441Z,13.07
2022-12-19T08:25:09.652Z,11.27
2022-12-19T08:27:12.940Z,12.83
2022-12-19T08:29:15.017Z,11.60
2022-12-19T08:31:18.083Z,11.30
2022-12-19T08:33:20.095Z,11.30
2022-12-19T08:35:22.949Z,12.40
2022-12-19T08:37:24.971Z,11.87
2022-12-19T08:39:26.937Z,11.63
2022-12-19T08:41:28.946Z,11.77
2022-12-19T08:43:32.101Z,11.30
2022-12-19T08:45:34.159Z,13.20
2022-12-19T08:47:36.171Z,10.60
2022-12-19T08:49:38.225Z,10.60
2022-12-19T08:51:40.362Z,13.10
2022-12-19T08:53:43.884Z,12.97
2022-12-19T08:55:46.004Z,13.50
2022-12-19T08:57:48.331Z,13.30
2022-12-19T08:59:50.342Z,13.83
2022-12-19T09:01:53.406Z,12.00
2022-12-19T09:05:57.327Z,11.73
2022-12-19T09:06:20.798Z,13.53
2022-12-19T09:08:23.584Z,12.47
2022-12-19T09:10:25.607Z,14.50
2022-12-19T09:12:27.591Z,12.00
2022-12-19T09:14:33.910Z,13.77
2022-12-19T09:16:35.901Z,13.63
2022-12-19T09:18:39.852Z,12.50
2022-12-19T09:20:43.570Z,12.97
2022-12-19T09:22:45.576Z,11.87
2022-12-19T09:24:47.620Z,13.53
2022-12-19T09:26:49.628Z,13.83
2022-12-19T09:28:52.046Z,13.40
2022-12-19T09:31:02.648Z,13.40
2022-12-19T09:33:04.752Z,13.90
2022-12-19T09:35:07.306Z,12.93
2022-12-19T09:37:16.305Z,12.87
2022-12-19T09:39:19.376Z,15.00
2022-12-19T09:41:30.109Z,13.67
2022-12-19T09:43:53.337Z,13.97
2022-12-19T09:45:59.056Z,13.77
2022-12-19T09:48:02.059Z,13.63
2022-12-19T09:50:31.755Z,14.37
2022-12-19T09:52:37.434Z,14.23
2022-12-19T09:54:56.696Z,11.70
2022-12-19T09:57:01.641Z,14.80
2022-12-19T09:59:12.102Z,14.93
2022-12-19T10:01:22.807Z,14.57
2022-12-19T10:03:41.285Z,14.00
2022-12-19T10:07:10.959Z,14.73
2022-12-19T10:08:25.746Z,14.57
2022-12-19T10:12:38.034Z,15.33
2022-12-19T10:13:37.727Z,14.43
2022-12-19T10:15:58.970Z,14.70
2022-12-19T10:18:24.002Z,16.20
2022-12-19T10:20:38.654Z,14.53
2022-12-19T10:22:46.217Z,15.50
2022-12-19T10:25:21.913Z,14.50
2022-12-19T10:27:34.412Z,16.40
2022-12-19T10:29:39.104Z,15.53
2022-12-19T10:32:00.945Z,15.90
2022-12-19T10:34:24.433Z,15.10
2022-12-19T10:36:49.142Z,14.37
2022-12-19T10:38:57.164Z,17.93
2022-12-19T10:41:12.025Z,15.80
2022-12-19T10:43:30.607Z,14.23
2022-12-19T10:45:50.672Z,16.83
2022-12-19T10:47:57.347Z,17.17
2022-12-19T10:50:04.043Z,19.73
2022-12-19T10:52:12.210Z,17.03
2022-12-19T10:54:14.164Z,16.10
2022-12-19T10:56:30.338Z,17.70
2022-12-19T10:58:37.341Z,15.90
2022-12-19T11:00:47.070Z,18.80
2022-12-19T11:02:54.341Z,17.80
2022-12-19T11:04:56.720Z,15.57
2022-12-19T11:07:07.562Z,17.87
2022-12-19T11:09:29.504Z,18.70
2022-12-19T11:13:23.186Z,17.63
2022-12-19T11:17:32.302Z,16.70
2022-12-19T11:20:33.824Z,17.30
2022-12-19T11:26:11.624Z,15.57
2022-12-19T11:29:30.654Z,16.77
2022-12-19T11:29:33.187Z,17.43
2022-12-19T11:29:40.288Z,15.83
2022-12-19T11:30:48.175Z,16.50
2022-12-19T11:33:54.961Z,17.27
2022-12-19T11:35:59.263Z,16.23
2022-12-19T11:38:06.149Z,15.90
2022-12-19T11:40:19.729Z,16.93
2022-12-19T11:42:29.873Z,18.30
2022-12-19T11:44:36.370Z,17.33
2022-12-19T11:46:45.585Z,17.60
2022-12-19T11:48:51.899Z,18.50
2022-12-19T11:51:04.889Z,16.20
2022-12-19T11:53:29.288Z,18.67
2022-12-19T11:55:53.289Z,16.80
2022-12-19T11:57:55.360Z,15.67
2022-12-19T12:00:01.385Z,16.50
2022-12-19T12:02:07.074Z,17.97
2022-12-19T12:04:37.055Z,17.70
2022-12-19T12:06:49.120Z,17.20
2022-12-19T12:13:43.522Z,18.00
2022-12-19T12:21:05.491Z,20.23
2022-12-19T12:24:44.236Z,16.87
2022-12-19T12:28:07.235Z,16.47
2022-12-19T12:31:01.284Z,18.30
2022-12-19T12:31:40.922Z,17.53
2022-12-19T12:31:48.509Z,17.40
2022-12-19T12:31:51.875Z,17.10
2022-12-19T12:32:03.521Z,16.57
2022-12-19T12:35:56.941Z,20.20
2022-12-19T12:38:25.917Z,19.43
2022-12-19T12:40:51.080Z,16.37
2022-12-19T12:42:59.019Z,16.90
2022-12-19T12:45:17.161Z,18.30
2022-12-19T12:47:24.647Z,17.40
2022-12-19T12:49:29.491Z,17.50
2022-12-19T12:51:33.276Z,17.97
2022-12-19T12:53:41.224Z,18.13
2022-12-19T12:55:44.460Z,18.03
2022-12-19T12:57:46.472Z,18.10
2022-12-19T12:59:48.626Z,18.03
2022-12-19T13:01:56.174Z,18.20
2022-12-19T13:04:13.632Z,18.20
2022-12-19T13:06:37.542Z,19.40
2022-12-19T13:08:47.598Z,17.80
2022-12-19T13:10:58.202Z,18.30
2022-12-19T13:13:14.151Z,17.63
2022-12-19T13:15:29.789Z,17.37
2022-12-19T13:17:34.509Z,18.10
2022-12-19T13:19:38.558Z,19.07
2022-12-19T13:22:07.500Z,17.60
2022-12-19T13:24:16.487Z,17.67
2022-12-19T13:26:43.090Z,17.33
2022-12-19T13:28:45.750Z,17.40
2022-12-19T13:31:22.978Z,16.17
2022-12-19T13:33:45.882Z,17.90
2022-12-19T13:39:22.648Z,16.67
2022-12-19T13:39:51.970Z,17.10
2022-12-19T13:40:44.541Z,17.63
2022-12-19T13:43:19.073Z,17.63
2022-12-19T13:45:25.477Z,19.07
2022-12-19T13:47:32.226Z,19.60
2022-12-19T13:49:35.394Z,16.90
2022-12-19T13:51:57.729Z,18.50
2022-12-19T13:54:00.312Z,17.73
2022-12-19T13:56:24.182Z,18.70
2022-12-19T13:58:31.589Z,18.30
2022-12-19T14:00:41.815Z,17.57
2022-12-19T14:02:51.351Z,18.03
2022-12-19T14:04:53.574Z,17.97
2022-12-19T14:07:05.542Z,16.87
2022-12-19T14:11:28.345Z,18.17
2022-12-19T14:12:28.958Z,16.50
2022-12-19T14:14:36.094Z,17.40
2022-12-19T14:16:44.870Z,18.87
2022-12-19T14:18:49.240Z,18.00
2022-12-19T14:22:08.587Z,17.90
2022-12-19T14:23:43.785Z,18.13
2022-12-19T14:28:21.104Z,17.97
2022-12-19T14:28:29.088Z,18.13
2022-12-19T14:30:35.464Z,16.30
2022-12-19T14:33:47.101Z,17.87
2022-12-19T14:36:10.814Z,17.47
2022-12-19T14:39:22.228Z,15.43
2022-12-19T14:39:59.149Z,15.70
2022-12-19T14:43:55.874Z,18.40
2022-12-19T14:52:35.073Z,16.33
2022-12-19T14:53:17.409Z,17.90
2022-12-19T14:54:06.700Z,16.00
2022-12-19T14:54:28.662Z,17.07
2022-12-19T14:56:13.011Z,18.23
2022-12-19T14:58:52.379Z,16.93
2022-12-19T15:00:50.965Z,19.47
2022-12-19T15:02:56.690Z,17.60
2022-12-19T15:05:14.800Z,17.10
2022-12-19T15:07:22.102Z,15.67
2022-12-19T15:10:58.771Z,16.60
2022-12-19T15:14:20.750Z,18.30
2022-12-19T15:14:56.032Z,17.57
2022-12-19T15:17:21.420Z,17.57
2022-12-19T15:19:23.763Z,17.60
2022-12-19T15:21:26.659Z,16.27
2022-12-19T15:23:29.382Z,17.17
2022-12-19T15:26:02.068Z,17.93
2022-12-19T15:27:53.305Z,16.40
2022-12-19T15:29:55.486Z,15.93
2022-12-19T15:31:58.461Z,17.17
2022-12-19T15:34:33.641Z,17.53
2022-12-19T15:36:26.724Z,16.30
2022-12-19T15:38:28.779Z,17.27
2022-12-19T15:40:30.767Z,17.07
2022-12-19T15:42:32.834Z,17.87
2022-12-19T15:44:37.356Z,18.10
2022-12-19T15:46:44.738Z,19.10
2022-12-19T15:48:51.134Z,18.50
2022-12-19T15:50:53.210Z,17.20
2022-12-19T15:52:57.618Z,18.50
2022-12-19T15:54:59.806Z,18.77
2022-12-19T15:57:01.979Z,16.63
2022-12-19T15:59:05.375Z,17.17
2022-12-19T16:01:07.499Z,17.80
2022-12-19T16:03:28.668Z,19.40
2022-12-19T16:05:31.105Z,17.80
2022-12-19T16:07:33.170Z,17.80
2022-12-19T16:09:35.299Z,19.30
2022-12-19T16:11:38.242Z,17.27
2022-12-19T16:13:40.390Z,17.93
2022-12-19T16:15:42.430Z,18.27
2022-12-19T16:17:44.424Z,18.43
2022-12-19T16:19:46.413Z,18.33
2022-12-19T16:21:48.672Z,18.77
2022-12-19T16:23:51.459Z,17.90
2022-12-19T16:25:53.563Z,17.47
2022-12-19T16:27:57.544Z,17.33
2022-12-19T16:30:07.208Z,18.50
2022-12-19T16:32:13.091Z,19.90
2022-12-19T16:34:17.292Z,17.73
2022-12-19T16:36:19.841Z,18.20
2022-12-19T16:38:22.450Z,19.30
2022-12-19T16:40:25.726Z,19.57
2022-12-19T16:42:29.578Z,18.80
2022-12-19T16:44:33.708Z,18.37
2022-12-19T16:46:35.903Z,18.80
2022-12-19T16:48:38.256Z,19.53
2022-12-19T16:50:40.432Z,19.07
2022-12-19T16:52:42.937Z,20.00
2022-12-19T16:54:45.023Z,19.00
2022-12-19T16:56:52.811Z,21.50
2022-12-19T16:58:56.083Z,19.70
2022-12-19T17:00:58.173Z,20.50
2022-12-19T17:03:08.696Z,18.20
2022-12-19T17:05:26.209Z,20.43
2022-12-19T17:07:28.900Z,18.97
2022-12-19T17:09:30.872Z,24.33
2022-12-19T17:11:33.066Z,18.83
2022-12-19T17:13:35.146Z,22.30
2022-12-19T17:15:38.856Z,22.30
2022-12-19T17:17:40.871Z,21.20
2022-12-19T17:19:45.156Z,19.93
2022-12-19T17:21:48.145Z,19.93
2022-12-19T17:23:50.740Z,20.33
2022-12-19T17:25:54.856Z,22.07
2022-12-19T17:27:56.925Z,22.80
2022-12-19T17:29:58.910Z,21.40
2022-12-19T17:32:01.047Z,19.17
2022-12-19T17:34:03.883Z,20.70
2022-12-19T17:36:07.475Z,18.80
2022-12-19T17:38:13.277Z,20.00
2022-12-19T17:40:20.404Z,21.60
2022-12-19T17:42:23.800Z,21.60
2022-12-19T17:44:25.787Z,22.03
2022-12-19T17:46:28.669Z,19.90
2022-12-19T17:48:31.903Z,18.53
2022-12-19T17:50:39.800Z,24.80
2022-12-19T17:52:41.810Z,24.83
2022-12-19T17:54:44.013Z,25.53
2022-12-19T17:56:46.061Z,20.40
2022-12-19T17:58:49.198Z,20.30
2022-12-19T18:00:51.594Z,20.83
2022-12-19T18:02:55.616Z,21.97
2022-12-19T18:04:58.458Z,29.83
2022-12-19T18:07:01.391Z,20.73
2022-12-19T18:09:03.838Z,23.37
2022-12-19T18:11:10.418Z,19.67
2022-12-19T18:13:12.405Z,20.83
2022-12-19T18:15:16.316Z,21.73
2022-12-19T18:17:25.653Z,25.60
2022-12-19T18:19:30.541Z,23.27
2022-12-19T18:21:32.614Z,21.97
2022-12-19T18:23:34.703Z,21.47
2022-12-19T18:25:36.703Z,23.03
2022-12-19T18:27:38.658Z,19.97
2022-12-19T18:29:42.050Z,23.63
2022-12-19T18:31:50.357Z,24.97
2022-12-19T18:33:54.484Z,19.17
2022-12-19T18:35:56.509Z,20.67
2022-12-19T18:38:00.881Z,21.43
2022-12-19T18:40:20.070Z,25.40
2022-12-19T18:42:24.204Z,24.87
2022-12-19T18:44:26.361Z,22.33
2022-12-19T18:46:28.616Z,22.13
2022-12-19T18:48:37.521Z,25.10
2022-12-19T18:50:40.148Z,21.53
2022-12-19T18:52:42.181Z,20.43
2022-12-19T18:54:44.176Z,21.50
2022-12-19T18:56:46.605Z,19.53
2022-12-19T18:58:48.725Z,22.70
2022-12-19T19:00:54.263Z,21.83
2022-12-19T19:03:06.619Z,20.17
2022-12-19T19:05:14.289Z,21.97
2022-12-19T19:07:16.360Z,18.30
2022-12-19T19:09:19.173Z,20.80
2022-12-19T19:11:47.139Z,20.60
2022-12-19T19:13:50.491Z,21.23
2022-12-19T19:15:57.459Z,20.00
2022-12-19T19:18:04.050Z,18.70
2022-12-19T19:20:06.840Z,20.70
2022-12-19T19:22:08.890Z,18.87
2022-12-19T19:24:14.105Z,19.47
2022-12-19T19:26:16.134Z,18.83
2022-12-19T19:28:18.203Z,20.17
2022-12-19T19:30:20.181Z,18.50
2022-12-19T19:32:22.308Z,18.87
2022-12-19T19:34:30.022Z,20.50
2022-12-19T19:36:35.947Z,23.37
2022-12-19T19:38:40.376Z,19.10
2022-12-19T19:40:42.369Z,18.40
2022-12-19T19:42:44.603Z,17.23
2022-12-19T19:44:46.574Z,18.33
2022-12-19T19:46:48.833Z,16.50
2022-12-19T19:48:50.984Z,17.23
2022-12-19T19:50:53.143Z,18.90
2022-12-19T19:52:56.115Z,18.90
2022-12-19T19:54:58.130Z,17.37
2022-12-19T19:57:00.157Z,17.50
2022-12-19T19:59:02.131Z,19.37
2022-12-19T20:01:10.888Z,18.60
2022-12-19T20:03:20.507Z,17.73
2022-12-19T20:05:24.928Z,17.27
2022-12-19T20:07:27.061Z,18.50
2022-12-19T20:09:29.130Z,19.90
2022-12-19T20:11:31.189Z,17.37
2022-12-19T20:13:33.300Z,16.30
2022-12-19T20:15:35.392Z,18.40
2022-12-19T20:17:38.181Z,16.83
2022-12-19T20:19:45.714Z,17.70
2022-12-19T20:21:47.767Z,17.70
2022-12-19T20:23:49.752Z,20.10
2022-12-19T20:25:51.880Z,17.23
2022-12-19T20:27:53.912Z,18.77
2022-12-19T20:29:56.680Z,19.03
2022-12-19T20:31:58.726Z,18.40
2022-12-19T20:34:00.707Z,15.50
2022-12-19T20:36:08.876Z,18.63
2022-12-19T20:38:10.894Z,19.63
2022-12-19T20:40:13.065Z,17.53
2022-12-19T20:42:15.109Z,18.77
2022-12-19T20:44:23.905Z,19.37
2022-12-19T20:46:26.569Z,17.57
2022-12-19T20:48:28.657Z,17.23
2022-12-19T20:50:30.778Z,18.07
2022-12-19T20:52:32.735Z,17.67
2022-12-19T20:54:34.696Z,18.47
2022-12-19T20:56:36.685Z,17.80
2022-12-19T20:58:38.831Z,16.73
2022-12-19T21:00:40.870Z,16.20
2022-12-19T21:03:17.290Z,17.73
2022-12-19T21:05:06.020Z,17.67
2022-12-19T21:07:08.308Z,17.10
2022-12-19T21:09:11.259Z,16.03
2022-12-19T21:11:13.833Z,15.00
2022-12-19T21:13:16.049Z,15.00
2022-12-19T21:15:18.081Z,16.03
2022-12-19T21:17:20.080Z,14.33
2022-12-19T21:19:22.043Z,15.10
2022-12-19T21:21:27.286Z,13.90
2022-12-19T21:23:29.298Z,15.67
2022-12-19T21:25:31.369Z,13.27
2022-12-19T21:27:34.005Z,14.60
2022-12-19T21:29:36.008Z,16.03
2022-12-19T21:31:38.053Z,14.23
2022-12-19T21:33:40.296Z,14.37
2022-12-19T21:35:42.298Z,13.00
2022-12-19T21:37:50.048Z,14.33
2022-12-19T21:39:52.157Z,13.50
2022-12-19T21:41:54.177Z,12.80
2022-12-19T21:43:56.468Z,12.80
2022-12-19T21:46:09.915Z,12.43
2022-12-19T21:48:11.966Z,13.90
2022-12-19T21:50:15.464Z,13.47
2022-12-19T21:52:17.481Z,14.63
2022-12-19T21:54:19.433Z,14.03
2022-12-19T21:56:25.597Z,12.93
2022-12-19T21:58:27.563Z,14.87
2022-12-19T22:00:29.617Z,13.03
2022-12-19T22:02:31.715Z,12.37
2022-12-19T22:04:33.861Z,12.77
2022-12-19T22:06:37.376Z,12.33
2022-12-19T22:08:40.269Z,13.87
2022-12-19T22:10:42.490Z,13.40
2022-12-19T22:12:44.512Z,13.00
2022-12-19T22:14:46.791Z,12.30
2022-12-19T22:16:49.183Z,13.30
2022-12-19T22:18:52.856Z,11.37
2022-12-19T22:20:58.916Z,10.77
2022-12-19T22:23:00.841Z,12.30
2022-12-19T22:25:03.233Z,12.13
2022-12-19T22:27:05.337Z,12.90
2022-12-19T22:29:09.361Z,11.97
2022-12-19T22:31:29.130Z,13.07
2022-12-19T22:33:31.221Z,12.40
2022-12-19T22:35:34.546Z,11.80
2022-12-19T22:37:36.664Z,11.60
2022-12-19T22:39:38.719Z,12.20
2022-12-19T22:41:41.276Z,12.60
2022-12-19T22:43:43.523Z,11.50
2022-12-19T22:45:45.650Z,14.20
2022-12-19T22:47:47.819Z,11.93
2022-12-19T22:49:53.020Z,11.27
2022-12-19T22:51:55.027Z,10.73
2022-12-19T22:53:57.219Z,11.63
2022-12-19T22:56:06.205Z,11.53
2022-12-19T22:58:08.866Z,12.37
2022-12-19T23:00:14.282Z,11.97
2022-12-19T23:02:16.601Z,10.60
2022-12-19T23:04:19.045Z,11.10
2022-12-19T23:06:22.139Z,11.53
2022-12-19T23:08:24.092Z,12.00
2022-12-19T23:10:26.098Z,13.07
2022-12-19T23:12:28.156Z,12.27
2022-12-19T23:14:30.188Z,12.57
2022-12-19T23:16:32.378Z,11.10
2022-12-19T23:18:34.588Z,11.70
2022-12-19T23:20:36.562Z,12.57
2022-12-19T23:22:38.626Z,11.10
2022-12-19T23:24:41.095Z,12.40
2022-12-19T23:26:43.102Z,12.70
2022-12-19T23:28:51.024Z,12.13
2022-12-19T23:31:05.866Z,13.47
2022-12-19T23:33:07.857Z,11.47
2022-12-19T23:35:10.312Z,12.10
2022-12-19T23:37:12.865Z,12.13
2022-12-19T23:39:15.102Z,11.90
2022-12-19T23:41:17.212Z,11.70
2022-12-19T23:43:19.437Z,12.37
2022-12-19T23:45:21.811Z,13.40
2022-12-19T23:47:23.857Z,12.47
2022-12-19T23:49:25.859Z,12.57
2022-12-19T23:51:28.374Z,12.80
2022-12-19T23:53:31.175Z,11.70
2022-12-19T23:55:33.275Z,12.43
2022-12-19T23:57:35.232Z,13.17
2022-12-19T23:59:37.206Z,12.20
